sensor_id;sensor_type;location;lat;lon;timestamp;temperature;humidity
13052;DHT22;6592;47.484;9.726;2024-01-27T00:02:22;8.10;99.90
13052;DHT22;6592;47.484;9.726;2024-01-27T00:04:51;8.10;99.90
13052;DHT22;6592;47.484;9.726;2024-01-27T00:07:19;8.00;99.90
13052;DHT22;6592;47.484;9.726;2024-01-27T00:09:47;8.00;99.90
13052;DHT22;6592;47.484;9.726;2024-01-27T00:12:16;8.00;99.90
13052;DHT22;6592;47.484;9.726;2024-01-27T00:14:44;7.90;99.90
13052;DHT22;6592;47.484;9.726;2024-01-27T00:17:14;7.90;99.90
13052;DHT22;6592;47.484;9.726;2024-01-27T00:19:42;7.90;99.90
13052;DHT22;6592;47.484;9.726;2024-01-27T00:22:10;7.90;99.90
13052;DHT22;6592;47.484;9.726;2024-01-27T00:24:38;7.90;99.90
13052;DHT22;6592;47.484;9.726;2024-01-27T00:27:06;7.80;99.90
13052;DHT22;6592;47.484;9.726;2024-01-27T00:29:35;7.80;99.90
13052;DHT22;6592;47.484;9.726;2024-01-27T00:32:03;7.80;99.90
13052;DHT22;6592;47.484;9.726;2024-01-27T00:34:33;7.80;99.90
13052;DHT22;6592;47.484;9.726;2024-01-27T00:37:01;7.80;99.90
13052;DHT22;6592;47.484;9.726;2024-01-27T00:39:31;7.70;99.90
13052;DHT22;6592;47.484;9.726;2024-01-27T00:42:00;7.70;99.90
13052;DHT22;6592;47.484;9.726;2024-01-27T00:44:28;7.70;99.90
13052;DHT22;6592;47.484;9.726;2024-01-27T00:46:56;7.60;99.90
13052;DHT22;6592;47.484;9.726;2024-01-27T00:49:24;7.60;99.90
13052;DHT22;6592;47.484;9.726;2024-01-27T00:51:54;7.50;99.90
13052;DHT22;6592;47.484;9.726;2024-01-27T00:54:22;7.40;99.90
13052;DHT22;6592;47.484;9.726;2024-01-27T00:56:52;7.30;99.90
13052;DHT22;6592;47.484;9.726;2024-01-27T00:59:21;7.30;99.90
13052;DHT22;6592;47.484;9.726;2024-01-27T01:01:49;7.20;99.90
13052;DHT22;6592;47.484;9.726;2024-01-27T01:04:18;7.20;99.90
13052;DHT22;6592;47.484;9.726;2024-01-27T01:06:46;7.20;99.90
13052;DHT22;6592;47.484;9.726;2024-01-27T01:09:16;7.20;99.90
13052;DHT22;6592;47.484;9.726;2024-01-27T01:11:44;7.10;99.90
13052;DHT22;6592;47.484;9.726;2024-01-27T01:14:13;7.10;99.90
13052;DHT22;6592;47.484;9.726;2024-01-27T01:16:41;7.10;99.90
13052;DHT22;6592;47.484;9.726;2024-01-27T01:19:09;7.20;99.90
13052;DHT22;6592;47.484;9.726;2024-01-27T01:21:37;7.20;99.90
13052;DHT22;6592;47.484;9.726;2024-01-27T01:24:06;7.20;99.90
13052;DHT22;6592;47.484;9.726;2024-01-27T01:26:36;7.20;99.90
13052;DHT22;6592;47.484;9.726;2024-01-27T01:29:04;7.20;99.90
13052;DHT22;6592;47.484;9.726;2024-01-27T01:31:32;7.20;99.90
13052;DHT22;6592;47.484;9.726;2024-01-27T01:34:00;7.20;99.90
13052;DHT22;6592;47.484;9.726;2024-01-27T01:36:29;7.20;99.90
13052;DHT22;6592;47.484;9.726;2024-01-27T01:38:57;7.20;99.90
13052;DHT22;6592;47.484;9.726;2024-01-27T01:41:25;7.30;99.90
13052;DHT22;6592;47.484;9.726;2024-01-27T01:43:55;7.30;99.90
13052;DHT22;6592;47.484;9.726;2024-01-27T01:46:24;7.20;99.90
13052;DHT22;6592;47.484;9.726;2024-01-27T01:48:52;7.30;99.90
13052;DHT22;6592;47.484;9.726;2024-01-27T01:51:22;7.30;99.90
13052;DHT22;6592;47.484;9.726;2024-01-27T01:53:51;7.30;99.90
13052;DHT22;6592;47.484;9.726;2024-01-27T01:56:22;7.30;99.90
13052;DHT22;6592;47.484;9.726;2024-01-27T01:58:51;7.20;99.90
13052;DHT22;6592;47.484;9.726;2024-01-27T02:01:22;7.20;99.90
13052;DHT22;6592;47.484;9.726;2024-01-27T02:03:54;7.20;99.90
13052;DHT22;6592;47.484;9.726;2024-01-27T02:06:22;7.20;99.90
13052;DHT22;6592;47.484;9.726;2024-01-27T02:08:50;7.20;99.90
13052;DHT22;6592;47.484;9.726;2024-01-27T02:11:19;7.20;99.90
13052;DHT22;6592;47.484;9.726;2024-01-27T02:13:47;6.90;99.90
13052;DHT22;6592;47.484;9.726;2024-01-27T02:16:15;7.10;99.90
13052;DHT22;6592;47.484;9.726;2024-01-27T02:18:46;7.10;99.90
13052;DHT22;6592;47.484;9.726;2024-01-27T02:21:14;7.10;99.90
13052;DHT22;6592;47.484;9.726;2024-01-27T02:23:43;7.10;99.90
13052;DHT22;6592;47.484;9.726;2024-01-27T02:26:14;7.10;99.90
13052;DHT22;6592;47.484;9.726;2024-01-27T02:28:42;7.10;99.90
13052;DHT22;6592;47.484;9.726;2024-01-27T02:31:10;7.10;99.90
13052;DHT22;6592;47.484;9.726;2024-01-27T02:33:39;7.10;99.90
13052;DHT22;6592;47.484;9.726;2024-01-27T02:36:07;7.10;99.90
13052;DHT22;6592;47.484;9.726;2024-01-27T02:38:36;7.10;99.90
13052;DHT22;6592;47.484;9.726;2024-01-27T02:41:04;7.10;99.90
13052;DHT22;6592;47.484;9.726;2024-01-27T02:43:34;7.00;99.90
13052;DHT22;6592;47.484;9.726;2024-01-27T02:46:03;7.00;99.90
13052;DHT22;6592;47.484;9.726;2024-01-27T02:48:32;6.90;99.90
13052;DHT22;6592;47.484;9.726;2024-01-27T02:51:02;6.90;99.90
13052;DHT22;6592;47.484;9.726;2024-01-27T02:53:31;6.90;99.90
13052;DHT22;6592;47.484;9.726;2024-01-27T02:55:59;6.90;99.90
13052;DHT22;6592;47.484;9.726;2024-01-27T02:58:27;6.80;99.90
13052;DHT22;6592;47.484;9.726;2024-01-27T03:00:57;6.80;99.90
13052;DHT22;6592;47.484;9.726;2024-01-27T03:03:25;6.70;99.90
13052;DHT22;6592;47.484;9.726;2024-01-27T03:05:53;6.70;99.90
13052;DHT22;6592;47.484;9.726;2024-01-27T03:08:22;6.70;99.90
13052;DHT22;6592;47.484;9.726;2024-01-27T03:10:50;6.70;99.90
13052;DHT22;6592;47.484;9.726;2024-01-27T03:13:18;6.70;99.90
13052;DHT22;6592;47.484;9.726;2024-01-27T03:15:46;6.70;99.90
13052;DHT22;6592;47.484;9.726;2024-01-27T03:18:17;6.70;99.90
13052;DHT22;6592;47.484;9.726;2024-01-27T03:20:45;6.70;99.90
13052;DHT22;6592;47.484;9.726;2024-01-27T03:23:13;6.70;99.90
13052;DHT22;6592;47.484;9.726;2024-01-27T03:25:42;6.70;99.90
13052;DHT22;6592;47.484;9.726;2024-01-27T03:28:10;6.70;99.90
13052;DHT22;6592;47.484;9.726;2024-01-27T03:30:38;6.70;99.90
13052;DHT22;6592;47.484;9.726;2024-01-27T03:33:07;6.70;99.90
13052;DHT22;6592;47.484;9.726;2024-01-27T03:35:39;6.70;99.90
13052;DHT22;6592;47.484;9.726;2024-01-27T03:38:08;6.70;99.90
13052;DHT22;6592;47.484;9.726;2024-01-27T03:40:36;6.60;99.90
13052;DHT22;6592;47.484;9.726;2024-01-27T03:43:04;6.60;99.90
13052;DHT22;6592;47.484;9.726;2024-01-27T03:45:32;6.60;99.90
13052;DHT22;6592;47.484;9.726;2024-01-27T03:48:00;6.50;99.90
13052;DHT22;6592;47.484;9.726;2024-01-27T03:50:29;6.50;99.90
13052;DHT22;6592;47.484;9.726;2024-01-27T03:52:59;6.50;99.90
13052;DHT22;6592;47.484;9.726;2024-01-27T03:55:27;6.50;99.90
13052;DHT22;6592;47.484;9.726;2024-01-27T03:57:55;6.50;99.90
13052;DHT22;6592;47.484;9.726;2024-01-27T04:00:24;6.50;99.90
13052;DHT22;6592;47.484;9.726;2024-01-27T04:02:52;6.50;99.90
13052;DHT22;6592;47.484;9.726;2024-01-27T04:05:21;6.50;99.90
13052;DHT22;6592;47.484;9.726;2024-01-27T04:07:49;6.50;99.90
13052;DHT22;6592;47.484;9.726;2024-01-27T04:10:20;6.40;99.90
13052;DHT22;6592;47.484;9.726;2024-01-27T04:12:48;6.40;99.90
13052;DHT22;6592;47.484;9.726;2024-01-27T04:15:16;6.40;99.90
13052;DHT22;6592;47.484;9.726;2024-01-27T04:17:45;6.40;99.90
13052;DHT22;6592;47.484;9.726;2024-01-27T04:20:13;6.30;99.90
13052;DHT22;6592;47.484;9.726;2024-01-27T04:22:41;6.20;99.90
13052;DHT22;6592;47.484;9.726;2024-01-27T04:25:10;6.20;99.90
13052;DHT22;6592;47.484;9.726;2024-01-27T04:27:40;6.20;99.90
13052;DHT22;6592;47.484;9.726;2024-01-27T04:30:11;6.20;99.90
13052;DHT22;6592;47.484;9.726;2024-01-27T04:32:40;6.30;99.90
13052;DHT22;6592;47.484;9.726;2024-01-27T04:35:09;6.30;99.90
13052;DHT22;6592;47.484;9.726;2024-01-27T04:37:38;6.30;99.90
13052;DHT22;6592;47.484;9.726;2024-01-27T04:40:07;6.20;99.90
13052;DHT22;6592;47.484;9.726;2024-01-27T04:42:39;6.30;99.90
13052;DHT22;6592;47.484;9.726;2024-01-27T04:45:08;6.30;99.90
13052;DHT22;6592;47.484;9.726;2024-01-27T04:47:36;6.30;99.90
13052;DHT22;6592;47.484;9.726;2024-01-27T04:50:05;6.30;99.90
13052;DHT22;6592;47.484;9.726;2024-01-27T04:52:34;6.30;99.90
13052;DHT22;6592;47.484;9.726;2024-01-27T04:55:02;6.30;99.90
13052;DHT22;6592;47.484;9.726;2024-01-27T04:57:31;6.20;99.90
13052;DHT22;6592;47.484;9.726;2024-01-27T05:00:01;6.10;99.90
13052;DHT22;6592;47.484;9.726;2024-01-27T05:02:31;6.10;99.90
13052;DHT22;6592;47.484;9.726;2024-01-27T05:04:59;6.00;99.90
13052;DHT22;6592;47.484;9.726;2024-01-27T05:07:27;6.00;99.90
13052;DHT22;6592;47.484;9.726;2024-01-27T05:09:55;6.00;99.90
13052;DHT22;6592;47.484;9.726;2024-01-27T05:12:23;6.10;99.90
13052;DHT22;6592;47.484;9.726;2024-01-27T05:14:52;6.10;99.90
13052;DHT22;6592;47.484;9.726;2024-01-27T05:17:22;6.10;99.90
13052;DHT22;6592;47.484;9.726;2024-01-27T05:19:50;6.10;99.90
13052;DHT22;6592;47.484;9.726;2024-01-27T05:22:18;6.20;99.90
13052;DHT22;6592;47.484;9.726;2024-01-27T05:24:47;6.20;99.90
13052;DHT22;6592;47.484;9.726;2024-01-27T05:27:15;6.20;99.90
13052;DHT22;6592;47.484;9.726;2024-01-27T05:29:43;6.20;99.90
13052;DHT22;6592;47.484;9.726;2024-01-27T05:32:11;6.20;99.90
13052;DHT22;6592;47.484;9.726;2024-01-27T05:34:41;6.20;99.90
13052;DHT22;6592;47.484;9.726;2024-01-27T05:37:09;6.10;99.90
13052;DHT22;6592;47.484;9.726;2024-01-27T05:39:38;6.10;99.90
13052;DHT22;6592;47.484;9.726;2024-01-27T05:42:06;6.10;99.90
13052;DHT22;6592;47.484;9.726;2024-01-27T05:44:34;6.10;99.90
13052;DHT22;6592;47.484;9.726;2024-01-27T05:47:03;6.10;99.90
13052;DHT22;6592;47.484;9.726;2024-01-27T05:49:34;6.10;99.90
13052;DHT22;6592;47.484;9.726;2024-01-27T05:52:05;6.00;99.90
13052;DHT22;6592;47.484;9.726;2024-01-27T05:54:33;6.00;99.90
13052;DHT22;6592;47.484;9.726;2024-01-27T05:57:02;5.90;99.90
13052;DHT22;6592;47.484;9.726;2024-01-27T05:59:30;5.90;99.90
13052;DHT22;6592;47.484;9.726;2024-01-27T06:01:58;5.90;99.90
13052;DHT22;6592;47.484;9.726;2024-01-27T06:04:27;5.90;99.90
13052;DHT22;6592;47.484;9.726;2024-01-27T06:06:56;5.90;99.90
13052;DHT22;6592;47.484;9.726;2024-01-27T06:09:26;5.90;99.90
13052;DHT22;6592;47.484;9.726;2024-01-27T06:11:54;5.80;99.90
13052;DHT22;6592;47.484;9.726;2024-01-27T06:14:22;5.70;99.90
13052;DHT22;6592;47.484;9.726;2024-01-27T06:16:50;5.80;99.90
13052;DHT22;6592;47.484;9.726;2024-01-27T06:19:19;5.80;99.90
13052;DHT22;6592;47.484;9.726;2024-01-27T06:21:48;5.80;99.90
13052;DHT22;6592;47.484;9.726;2024-01-27T06:24:16;5.80;99.90
13052;DHT22;6592;47.484;9.726;2024-01-27T06:26:46;5.80;99.90
13052;DHT22;6592;47.484;9.726;2024-01-27T06:29:14;5.80;99.90
13052;DHT22;6592;47.484;9.726;2024-01-27T06:31:42;5.80;99.90
13052;DHT22;6592;47.484;9.726;2024-01-27T06:34:10;5.90;99.90
13052;DHT22;6592;47.484;9.726;2024-01-27T06:36:39;5.80;99.90
13052;DHT22;6592;47.484;9.726;2024-01-27T06:39:07;5.80;99.90
13052;DHT22;6592;47.484;9.726;2024-01-27T06:41:36;5.80;99.90
13052;DHT22;6592;47.484;9.726;2024-01-27T06:44:06;5.80;99.90
13052;DHT22;6592;47.484;9.726;2024-01-27T06:46:34;5.80;99.90
13052;DHT22;6592;47.484;9.726;2024-01-27T06:49:02;5.80;99.90
13052;DHT22;6592;47.484;9.726;2024-01-27T06:51:31;5.90;99.90
13052;DHT22;6592;47.484;9.726;2024-01-27T06:53:59;5.90;99.90
13052;DHT22;6592;47.484;9.726;2024-01-27T06:56:27;5.90;99.90
13052;DHT22;6592;47.484;9.726;2024-01-27T06:58:56;6.00;99.90
13052;DHT22;6592;47.484;9.726;2024-01-27T07:01:26;6.00;99.90
13052;DHT22;6592;47.484;9.726;2024-01-27T07:03:54;6.00;99.90
13052;DHT22;6592;47.484;9.726;2024-01-27T07:06:22;6.00;99.90
13052;DHT22;6592;47.484;9.726;2024-01-27T07:08:50;6.00;99.90
13052;DHT22;6592;47.484;9.726;2024-01-27T07:11:19;6.00;99.90
13052;DHT22;6592;47.484;9.726;2024-01-27T07:13:47;6.10;99.90
13052;DHT22;6592;47.484;9.726;2024-01-27T07:16:15;6.10;99.90
13052;DHT22;6592;47.484;9.726;2024-01-27T07:18:45;6.10;99.90
13052;DHT22;6592;47.484;9.726;2024-01-27T07:21:15;6.10;99.90
13052;DHT22;6592;47.484;9.726;2024-01-27T07:23:44;6.20;99.90
13052;DHT22;6592;47.484;9.726;2024-01-27T07:26:12;6.20;99.90
13052;DHT22;6592;47.484;9.726;2024-01-27T07:28:41;6.30;99.90
13052;DHT22;6592;47.484;9.726;2024-01-27T07:31:09;6.30;99.90
13052;DHT22;6592;47.484;9.726;2024-01-27T07:33:38;6.60;99.90
13052;DHT22;6592;47.484;9.726;2024-01-27T07:36:08;7.30;99.90
13052;DHT22;6592;47.484;9.726;2024-01-27T07:38:38;7.60;99.90
13052;DHT22;6592;47.484;9.726;2024-01-27T07:41:06;7.80;99.90
13052;DHT22;6592;47.484;9.726;2024-01-27T07:43:34;8.40;99.90
13052;DHT22;6592;47.484;9.726;2024-01-27T07:46:03;9.30;99.90
13052;DHT22;6592;47.484;9.726;2024-01-27T07:48:31;10.10;99.90
13052;DHT22;6592;47.484;9.726;2024-01-27T07:50:59;10.80;99.90
13052;DHT22;6592;47.484;9.726;2024-01-27T07:53:29;11.10;99.90
13052;DHT22;6592;47.484;9.726;2024-01-27T07:55:57;11.10;99.90
13052;DHT22;6592;47.484;9.726;2024-01-27T07:58:25;10.80;99.90
13052;DHT22;6592;47.484;9.726;2024-01-27T08:00:54;10.60;99.90
13052;DHT22;6592;47.484;9.726;2024-01-27T08:03:22;11.00;99.90
13052;DHT22;6592;47.484;9.726;2024-01-27T08:05:50;11.40;99.90
13052;DHT22;6592;47.484;9.726;2024-01-27T08:08:18;12.20;99.90
13052;DHT22;6592;47.484;9.726;2024-01-27T08:10:48;13.20;99.90
13052;DHT22;6592;47.484;9.726;2024-01-27T08:13:16;14.10;99.90
13052;DHT22;6592;47.484;9.726;2024-01-27T08:15:44;14.70;99.90
13052;DHT22;6592;47.484;9.726;2024-01-27T08:18:13;15.40;99.90
13052;DHT22;6592;47.484;9.726;2024-01-27T08:20:41;16.00;99.90
13052;DHT22;6592;47.484;9.726;2024-01-27T08:23:10;16.60;99.90
13052;DHT22;6592;47.484;9.726;2024-01-27T08:25:38;17.40;99.90
13052;DHT22;6592;47.484;9.726;2024-01-27T08:28:09;17.50;99.90
13052;DHT22;6592;47.484;9.726;2024-01-27T08:30:37;17.70;99.90
13052;DHT22;6592;47.484;9.726;2024-01-27T08:33:06;18.40;99.90
13052;DHT22;6592;47.484;9.726;2024-01-27T08:35:34;19.20;99.90
13052;DHT22;6592;47.484;9.726;2024-01-27T08:38:03;19.60;99.90
13052;DHT22;6592;47.484;9.726;2024-01-27T08:40:32;19.90;99.90
13052;DHT22;6592;47.484;9.726;2024-01-27T08:43:01;19.10;99.90
13052;DHT22;6592;47.484;9.726;2024-01-27T08:45:30;18.10;99.90
13052;DHT22;6592;47.484;9.726;2024-01-27T08:47:58;17.70;99.90
13052;DHT22;6592;47.484;9.726;2024-01-27T08:50:27;17.70;99.90
13052;DHT22;6592;47.484;9.726;2024-01-27T08:52:55;17.50;99.90
13052;DHT22;6592;47.484;9.726;2024-01-27T08:55:23;16.50;99.90
13052;DHT22;6592;47.484;9.726;2024-01-27T08:57:52;15.80;99.90
13052;DHT22;6592;47.484;9.726;2024-01-27T09:00:20;15.30;99.90
13052;DHT22;6592;47.484;9.726;2024-01-27T09:02:51;14.70;99.90
13052;DHT22;6592;47.484;9.726;2024-01-27T09:05:19;14.60;99.90
13052;DHT22;6592;47.484;9.726;2024-01-27T09:07:48;15.00;99.90
13052;DHT22;6592;47.484;9.726;2024-01-27T09:10:16;15.60;99.90
13052;DHT22;6592;47.484;9.726;2024-01-27T09:12:44;16.20;99.90
13052;DHT22;6592;47.484;9.726;2024-01-27T09:15:13;16.20;99.90
13052;DHT22;6592;47.484;9.726;2024-01-27T09:17:42;16.80;99.90
13052;DHT22;6592;47.484;9.726;2024-01-27T09:20:12;17.20;99.90
13052;DHT22;6592;47.484;9.726;2024-01-27T09:22:40;16.90;99.90
13052;DHT22;6592;47.484;9.726;2024-01-27T09:25:09;16.90;99.90
13052;DHT22;6592;47.484;9.726;2024-01-27T09:27:37;17.30;99.90
13052;DHT22;6592;47.484;9.726;2024-01-27T09:30:06;16.60;99.90
13052;DHT22;6592;47.484;9.726;2024-01-27T09:32:35;16.30;99.90
13052;DHT22;6592;47.484;9.726;2024-01-27T09:35:04;17.40;99.90
13052;DHT22;6592;47.484;9.726;2024-01-27T09:37:34;18.60;99.90
13052;DHT22;6592;47.484;9.726;2024-01-27T09:40:02;18.80;99.90
13052;DHT22;6592;47.484;9.726;2024-01-27T09:42:33;19.00;99.90
13052;DHT22;6592;47.484;9.726;2024-01-27T09:45:03;20.10;99.90
13052;DHT22;6592;47.484;9.726;2024-01-27T09:47:33;20.90;99.90
13052;DHT22;6592;47.484;9.726;2024-01-27T09:50:02;21.10;99.90
13052;DHT22;6592;47.484;9.726;2024-01-27T09:52:31;21.50;99.90
13052;DHT22;6592;47.484;9.726;2024-01-27T09:55:00;22.40;99.90
13052;DHT22;6592;47.484;9.726;2024-01-27T09:57:29;22.70;99.90
13052;DHT22;6592;47.484;9.726;2024-01-27T09:59:58;23.40;99.90
13052;DHT22;6592;47.484;9.726;2024-01-27T10:02:27;23.80;99.90
13052;DHT22;6592;47.484;9.726;2024-01-27T10:04:58;24.50;99.90
13052;DHT22;6592;47.484;9.726;2024-01-27T10:07:27;25.60;99.70
13052;DHT22;6592;47.484;9.726;2024-01-27T10:09:55;26.80;97.70
13052;DHT22;6592;47.484;9.726;2024-01-27T10:12:26;27.60;93.20
13052;DHT22;6592;47.484;9.726;2024-01-27T10:14:56;28.20;91.70
13052;DHT22;6592;47.484;9.726;2024-01-27T10:17:25;29.00;85.90
13052;DHT22;6592;47.484;9.726;2024-01-27T10:19:59;29.70;82.60
13052;DHT22;6592;47.484;9.726;2024-01-27T10:22:37;29.90;74.90
13052;DHT22;6592;47.484;9.726;2024-01-27T10:25:07;30.20;70.80
13052;DHT22;6592;47.484;9.726;2024-01-27T10:27:36;30.50;72.10
13052;DHT22;6592;47.484;9.726;2024-01-27T10:30:08;30.90;67.80
13052;DHT22;6592;47.484;9.726;2024-01-27T10:32:43;31.40;67.00
13052;DHT22;6592;47.484;9.726;2024-01-27T10:35:11;31.40;62.20
13052;DHT22;6592;47.484;9.726;2024-01-27T10:37:39;30.90;57.60
13052;DHT22;6592;47.484;9.726;2024-01-27T10:40:08;31.30;60.60
13052;DHT22;6592;47.484;9.726;2024-01-27T10:42:38;31.80;60.90
13052;DHT22;6592;47.484;9.726;2024-01-27T10:45:07;32.30;59.10
13052;DHT22;6592;47.484;9.726;2024-01-27T10:47:37;32.30;58.70
13052;DHT22;6592;47.484;9.726;2024-01-27T10:50:08;32.50;57.40
13052;DHT22;6592;47.484;9.726;2024-01-27T10:52:38;32.80;57.20
13052;DHT22;6592;47.484;9.726;2024-01-27T10:55:10;32.90;55.90
13052;DHT22;6592;47.484;9.726;2024-01-27T10:57:40;32.10;55.30
13052;DHT22;6592;47.484;9.726;2024-01-27T11:00:10;32.60;57.00
13052;DHT22;6592;47.484;9.726;2024-01-27T11:02:39;32.90;54.60
13052;DHT22;6592;47.484;9.726;2024-01-27T11:05:11;33.20;53.90
13052;DHT22;6592;47.484;9.726;2024-01-27T11:07:42;33.40;52.50
13052;DHT22;6592;47.484;9.726;2024-01-27T11:10:10;33.50;52.50
13052;DHT22;6592;47.484;9.726;2024-01-27T11:12:40;33.70;52.70
13052;DHT22;6592;47.484;9.726;2024-01-27T11:15:08;34.00;52.50
13052;DHT22;6592;47.484;9.726;2024-01-27T11:17:40;34.20;52.20
13052;DHT22;6592;47.484;9.726;2024-01-27T11:20:09;34.50;49.70
13052;DHT22;6592;47.484;9.726;2024-01-27T11:22:38;34.40;50.50
13052;DHT22;6592;47.484;9.726;2024-01-27T11:25:14;34.40;50.30
13052;DHT22;6592;47.484;9.726;2024-01-27T11:27:45;34.40;49.20
13052;DHT22;6592;47.484;9.726;2024-01-27T11:30:27;34.60;49.60
13052;DHT22;6592;47.484;9.726;2024-01-27T11:32:56;34.80;49.10
13052;DHT22;6592;47.484;9.726;2024-01-27T11:35:25;34.60;47.40
13052;DHT22;6592;47.484;9.726;2024-01-27T11:37:54;34.60;49.00
13052;DHT22;6592;47.484;9.726;2024-01-27T11:40:22;34.30;48.30
13052;DHT22;6592;47.484;9.726;2024-01-27T11:42:58;34.30;47.40
13052;DHT22;6592;47.484;9.726;2024-01-27T11:45:27;34.10;48.10
13052;DHT22;6592;47.484;9.726;2024-01-27T11:47:56;34.40;48.00
13052;DHT22;6592;47.484;9.726;2024-01-27T11:50:25;34.60;47.00
13052;DHT22;6592;47.484;9.726;2024-01-27T11:52:56;34.60;47.90
13052;DHT22;6592;47.484;9.726;2024-01-27T11:55:24;34.00;47.30
13052;DHT22;6592;47.484;9.726;2024-01-27T11:57:52;33.40;46.70
13052;DHT22;6592;47.484;9.726;2024-01-27T12:00:22;33.20;48.90
13052;DHT22;6592;47.484;9.726;2024-01-27T12:02:50;33.40;49.10
13052;DHT22;6592;47.484;9.726;2024-01-27T12:05:19;33.40;48.80
13052;DHT22;6592;47.484;9.726;2024-01-27T12:07:48;33.40;49.90
13052;DHT22;6592;47.484;9.726;2024-01-27T12:10:16;33.60;49.50
13052;DHT22;6592;47.484;9.726;2024-01-27T12:12:45;33.80;48.70
13052;DHT22;6592;47.484;9.726;2024-01-27T12:15:13;33.60;48.70
13052;DHT22;6592;47.484;9.726;2024-01-27T12:17:49;34.00;48.20
13052;DHT22;6592;47.484;9.726;2024-01-27T12:20:18;34.10;47.50
13052;DHT22;6592;47.484;9.726;2024-01-27T12:22:47;33.90;47.60
13052;DHT22;6592;47.484;9.726;2024-01-27T12:25:16;33.70;48.90
13052;DHT22;6592;47.484;9.726;2024-01-27T12:27:44;33.80;48.60
13052;DHT22;6592;47.484;9.726;2024-01-27T12:30:12;33.90;48.70
13052;DHT22;6592;47.484;9.726;2024-01-27T12:32:43;34.00;47.90
13052;DHT22;6592;47.484;9.726;2024-01-27T12:35:13;34.30;48.20
13052;DHT22;6592;47.484;9.726;2024-01-27T12:37:43;34.40;47.90
13052;DHT22;6592;47.484;9.726;2024-01-27T12:40:17;34.50;47.40
13052;DHT22;6592;47.484;9.726;2024-01-27T12:42:50;34.70;45.50
13052;DHT22;6592;47.484;9.726;2024-01-27T12:45:18;34.40;47.10
13052;DHT22;6592;47.484;9.726;2024-01-27T12:47:48;34.20;47.40
13052;DHT22;6592;47.484;9.726;2024-01-27T12:50:17;33.90;46.30
13052;DHT22;6592;47.484;9.726;2024-01-27T12:52:45;33.60;46.60
13052;DHT22;6592;47.484;9.726;2024-01-27T12:55:14;33.50;46.80
13052;DHT22;6592;47.484;9.726;2024-01-27T12:57:43;33.40;46.70
13052;DHT22;6592;47.484;9.726;2024-01-27T13:00:12;33.20;47.40
13052;DHT22;6592;47.484;9.726;2024-01-27T13:02:42;33.20;47.50
13052;DHT22;6592;47.484;9.726;2024-01-27T13:05:11;32.30;46.60
13052;DHT22;6592;47.484;9.726;2024-01-27T13:07:40;32.20;48.60
13052;DHT22;6592;47.484;9.726;2024-01-27T13:10:09;31.20;48.60
13052;DHT22;6592;47.484;9.726;2024-01-27T13:12:37;30.80;48.70
13052;DHT22;6592;47.484;9.726;2024-01-27T13:15:05;30.20;49.60
13052;DHT22;6592;47.484;9.726;2024-01-27T13:17:34;29.70;50.00
13052;DHT22;6592;47.484;9.726;2024-01-27T13:20:02;29.20;50.80
13052;DHT22;6592;47.484;9.726;2024-01-27T13:22:34;29.00;52.10
13052;DHT22;6592;47.484;9.726;2024-01-27T13:25:02;29.20;51.70
13052;DHT22;6592;47.484;9.726;2024-01-27T13:27:35;29.20;52.30
13052;DHT22;6592;47.484;9.726;2024-01-27T13:30:04;29.20;52.00
13052;DHT22;6592;47.484;9.726;2024-01-27T13:32:32;29.20;50.90
13052;DHT22;6592;47.484;9.726;2024-01-27T13:35:01;29.10;52.10
13052;DHT22;6592;47.484;9.726;2024-01-27T13:37:29;29.10;52.50
13052;DHT22;6592;47.484;9.726;2024-01-27T13:40:02;29.20;52.50
13052;DHT22;6592;47.484;9.726;2024-01-27T13:42:31;29.00;52.00
13052;DHT22;6592;47.484;9.726;2024-01-27T13:44:59;29.10;52.40
13052;DHT22;6592;47.484;9.726;2024-01-27T13:47:27;29.40;52.30
13052;DHT22;6592;47.484;9.726;2024-01-27T13:49:57;29.40;51.60
13052;DHT22;6592;47.484;9.726;2024-01-27T13:52:26;29.70;52.10
13052;DHT22;6592;47.484;9.726;2024-01-27T13:54:55;29.80;51.40
13052;DHT22;6592;47.484;9.726;2024-01-27T13:57:25;30.00;50.60
13052;DHT22;6592;47.484;9.726;2024-01-27T13:59:53;30.00;50.90
13052;DHT22;6592;47.484;9.726;2024-01-27T14:02:22;30.00;50.30
13052;DHT22;6592;47.484;9.726;2024-01-27T14:04:50;30.00;50.80
13052;DHT22;6592;47.484;9.726;2024-01-27T14:07:19;29.80;50.80
13052;DHT22;6592;47.484;9.726;2024-01-27T14:09:47;29.90;51.00
13052;DHT22;6592;47.484;9.726;2024-01-27T14:12:15;30.10;50.80
13052;DHT22;6592;47.484;9.726;2024-01-27T14:14:45;30.30;50.70
13052;DHT22;6592;47.484;9.726;2024-01-27T14:17:13;30.30;50.90
13052;DHT22;6592;47.484;9.726;2024-01-27T14:19:41;30.20;50.70
13052;DHT22;6592;47.484;9.726;2024-01-27T14:22:10;30.40;50.00
13052;DHT22;6592;47.484;9.726;2024-01-27T14:24:38;29.90;50.90
13052;DHT22;6592;47.484;9.726;2024-01-27T14:27:07;29.70;49.90
13052;DHT22;6592;47.484;9.726;2024-01-27T14:29:37;29.40;50.40
13052;DHT22;6592;47.484;9.726;2024-01-27T14:32:06;29.30;50.80
13052;DHT22;6592;47.484;9.726;2024-01-27T14:34:35;28.60;50.40
13052;DHT22;6592;47.484;9.726;2024-01-27T14:37:03;28.60;51.20
13052;DHT22;6592;47.484;9.726;2024-01-27T14:39:34;28.50;51.10
13052;DHT22;6592;47.484;9.726;2024-01-27T14:42:03;28.20;51.70
13052;DHT22;6592;47.484;9.726;2024-01-27T14:44:35;28.10;51.60
13052;DHT22;6592;47.484;9.726;2024-01-27T14:47:04;27.50;51.80
13052;DHT22;6592;47.484;9.726;2024-01-27T14:49:35;27.00;52.30
13052;DHT22;6592;47.484;9.726;2024-01-27T14:52:05;26.00;53.30
13052;DHT22;6592;47.484;9.726;2024-01-27T14:54:34;25.20;54.30
13052;DHT22;6592;47.484;9.726;2024-01-27T14:57:04;24.00;55.90
13052;DHT22;6592;47.484;9.726;2024-01-27T14:59:36;22.80;57.60
13052;DHT22;6592;47.484;9.726;2024-01-27T15:02:06;21.50;59.90
13052;DHT22;6592;47.484;9.726;2024-01-27T15:04:38;20.30;62.20
13052;DHT22;6592;47.484;9.726;2024-01-27T15:07:07;19.40;64.40
13052;DHT22;6592;47.484;9.726;2024-01-27T15:09:36;18.40;67.90
13052;DHT22;6592;47.484;9.726;2024-01-27T15:12:06;17.30;70.40
13052;DHT22;6592;47.484;9.726;2024-01-27T15:14:34;16.70;72.20
13052;DHT22;6592;47.484;9.726;2024-01-27T15:17:02;16.00;74.90
13052;DHT22;6592;47.484;9.726;2024-01-27T15:19:30;15.40;75.30
13052;DHT22;6592;47.484;9.726;2024-01-27T15:22:08;14.90;77.70
13052;DHT22;6592;47.484;9.726;2024-01-27T15:24:36;14.40;80.10
13052;DHT22;6592;47.484;9.726;2024-01-27T15:27:06;13.90;81.90
13052;DHT22;6592;47.484;9.726;2024-01-27T15:29:38;13.50;84.30
13052;DHT22;6592;47.484;9.726;2024-01-27T15:32:06;13.20;86.60
13052;DHT22;6592;47.484;9.726;2024-01-27T15:34:35;12.90;88.60
13052;DHT22;6592;47.484;9.726;2024-01-27T15:37:04;12.60;90.70
13052;DHT22;6592;47.484;9.726;2024-01-27T15:39:34;12.30;93.10
13052;DHT22;6592;47.484;9.726;2024-01-27T15:42:03;12.10;95.10
13052;DHT22;6592;47.484;9.726;2024-01-27T15:44:31;12.10;96.30
13052;DHT22;6592;47.484;9.726;2024-01-27T15:46:59;12.40;97.20
13052;DHT22;6592;47.484;9.726;2024-01-27T15:49:28;12.50;98.70
13052;DHT22;6592;47.484;9.726;2024-01-27T15:51:56;12.30;99.90
13052;DHT22;6592;47.484;9.726;2024-01-27T15:54:24;12.10;99.90
13052;DHT22;6592;47.484;9.726;2024-01-27T15:56:54;12.00;99.90
13052;DHT22;6592;47.484;9.726;2024-01-27T15:59:22;11.70;99.90
13052;DHT22;6592;47.484;9.726;2024-01-27T16:01:50;11.50;99.90
13052;DHT22;6592;47.484;9.726;2024-01-27T16:04:19;11.30;99.90
13052;DHT22;6592;47.484;9.726;2024-01-27T16:06:47;11.10;99.90